createdAt,value
2023-04-13T00:00:13.209Z,8.07
2023-04-13T00:02:40.088Z,8.08
2023-04-13T00:05:10.119Z,8.08
2023-04-13T00:07:38.685Z,8.08
2023-04-13T00:10:09.662Z,8.07
2023-04-13T00:12:37.694Z,8.06
2023-04-13T00:15:05.764Z,8.05
2023-04-13T00:17:33.491Z,8.05
2023-04-13T00:20:00.472Z,8.04
2023-04-13T00:22:30.043Z,8.02
2023-04-13T00:24:57.697Z,8.01
2023-04-13T00:27:27.455Z,8.01
2023-04-13T00:29:56.276Z,8.01
2023-04-13T00:32:24.307Z,7.98
2023-04-13T00:34:52.420Z,7.97
2023-04-13T00:37:21.866Z,7.94
2023-04-13T00:39:48.334Z,7.96
2023-04-13T00:42:14.834Z,7.96
2023-04-13T00:44:42.067Z,7.98
2023-04-13T00:47:08.976Z,7.99
2023-04-13T00:49:36.259Z,8.01
2023-04-13T00:52:03.358Z,8.03
2023-04-13T00:54:30.403Z,8.04
2023-04-13T00:56:58.708Z,8.06
2023-04-13T00:59:29.448Z,8.06
2023-04-13T01:02:02.099Z,8.10
2023-04-13T01:04:30.578Z,8.11
2023-04-13T01:07:15.978Z,8.09
2023-04-13T01:09:52.419Z,8.15
2023-04-13T01:12:31.509Z,8.16
2023-04-13T01:15:05.843Z,8.20
2023-04-13T01:17:35.228Z,8.23
2023-04-13T01:20:11.998Z,8.26
2023-04-13T01:22:45.792Z,8.30
2023-04-13T01:25:17.641Z,8.31
2023-04-13T01:27:48.649Z,8.37
2023-04-13T01:30:21.972Z,8.40
2023-04-13T01:32:54.864Z,8.42
2023-04-13T01:35:22.837Z,8.47
2023-04-13T01:37:52.760Z,8.50
2023-04-13T01:40:21.070Z,8.52
2023-04-13T01:42:47.894Z,8.55
2023-04-13T01:45:46.133Z,8.55
2023-04-13T01:48:19.267Z,8.57
2023-04-13T01:50:56.258Z,8.61
2023-04-13T01:53:30.376Z,8.59
2023-04-13T01:55:57.215Z,8.62
2023-04-13T01:58:28.110Z,8.58
2023-04-13T02:00:55.797Z,8.54
2023-04-13T02:03:25.364Z,8.52
2023-04-13T02:05:52.292Z,8.48
2023-04-13T02:08:18.907Z,8.43
2023-04-13T02:10:46.248Z,8.36
2023-04-13T02:13:13.513Z,8.31
2023-04-13T02:15:41.431Z,8.24
2023-04-13T02:18:08.009Z,8.19
2023-04-13T02:20:42.709Z,8.13
2023-04-13T02:23:10.415Z,8.12
2023-04-13T02:25:37.492Z,8.07
2023-04-13T02:28:04.877Z,8.03
2023-04-13T02:30:31.435Z,8.01
2023-04-13T02:32:58.025Z,8.00
2023-04-13T02:35:25.738Z,7.97
2023-04-13T02:37:52.189Z,7.96
2023-04-13T02:40:19.460Z,7.94
2023-04-13T02:42:45.925Z,7.92
2023-04-13T02:45:13.452Z,7.92
2023-04-13T02:47:40.164Z,7.94
2023-04-13T02:50:07.440Z,7.95
2023-04-13T02:52:33.882Z,7.98
2023-04-13T02:55:01.156Z,8.00
2023-04-13T02:57:27.586Z,8.02
2023-04-13T02:59:54.179Z,8.03
2023-04-13T03:02:21.512Z,8.03
2023-04-13T03:04:48.855Z,8.04
2023-04-13T03:07:17.095Z,8.06
2023-04-13T03:09:47.447Z,8.06
2023-04-13T03:12:13.944Z,8.11
2023-04-13T03:14:40.391Z,8.12
2023-04-13T03:17:08.305Z,8.13
2023-04-13T03:19:35.936Z,8.15
2023-04-13T03:22:02.454Z,8.14
2023-04-13T03:24:29.083Z,8.16
2023-04-13T03:26:57.065Z,8.15
2023-04-13T03:29:26.648Z,8.12
2023-04-13T03:31:53.183Z,8.12
2023-04-13T03:34:19.628Z,8.11
2023-04-13T03:36:46.547Z,8.08
2023-04-13T03:39:13.066Z,8.07
2023-04-13T03:41:39.608Z,8.05
2023-04-13T03:44:07.818Z,8.05
2023-04-13T03:46:37.989Z,8.02
2023-04-13T03:49:08.511Z,8.03
2023-04-13T03:51:35.961Z,8.02
2023-04-13T03:54:03.207Z,8.03
2023-04-13T03:56:30.840Z,7.98
2023-04-13T03:58:57.418Z,8.00
2023-04-13T04:01:24.030Z,8.00
2023-04-13T04:03:50.917Z,8.03
2023-04-13T04:06:17.445Z,8.03
2023-04-13T04:08:45.405Z,8.04
2023-04-13T04:11:12.002Z,8.04
2023-04-13T04:13:38.443Z,8.04
2023-04-13T04:16:07.252Z,8.05
2023-04-13T04:18:33.800Z,8.04
2023-04-13T04:24:36.878Z,8.00
2023-04-13T04:27:41.528Z,8.03
2023-04-13T04:30:29.752Z,8.06
2023-04-13T04:34:00.045Z,8.04
2023-04-13T04:35:50.311Z,8.06
2023-04-13T04:38:38.847Z,7.99
2023-04-13T04:41:31.315Z,7.98
2023-04-13T04:47:58.467Z,7.97
2023-04-13T04:50:35.008Z,7.98
2023-04-13T04:53:23.441Z,7.99
2023-04-13T04:55:58.669Z,8.01
2023-04-13T04:58:25.376Z,8.02
2023-04-13T05:03:53.666Z,8.04
2023-04-13T05:09:04.489Z,8.06
2023-04-13T05:11:58.110Z,8.09
2023-04-13T05:14:24.918Z,8.13
2023-04-13T05:19:57.722Z,8.17
2023-04-13T05:22:30.088Z,8.14
2023-04-13T05:25:13.410Z,8.15
2023-04-13T05:37:50.326Z,8.27
2023-04-13T05:40:17.121Z,8.27
2023-04-13T05:43:23.990Z,8.28
2023-04-13T05:45:59.796Z,8.30
2023-04-13T05:48:34.577Z,8.33
2023-04-13T05:51:01.317Z,8.37
2023-04-13T05:54:32.512Z,8.34
2023-04-13T05:56:57.586Z,8.43
2023-04-13T05:59:44.960Z,8.42
2023-04-13T06:02:14.853Z,8.47
2023-04-13T06:04:49.484Z,8.51
2023-04-13T06:07:16.522Z,8.57
2023-04-13T06:12:33.654Z,8.66
2023-04-13T06:15:00.575Z,8.70
2023-04-13T06:17:27.656Z,8.75
2023-04-13T06:19:54.648Z,8.79
2023-04-13T06:22:21.239Z,8.80
2023-04-13T06:24:49.539Z,8.84
2023-04-13T06:27:38.024Z,8.90
2023-04-13T06:30:34.571Z,8.95
2023-04-13T06:35:52.236Z,9.04
2023-04-13T06:38:18.872Z,9.10
2023-04-13T06:40:45.825Z,9.13
2023-04-13T06:43:26.450Z,9.16
2023-04-13T06:46:00.746Z,9.16
2023-04-13T06:48:27.541Z,9.19
2023-04-13T06:50:57.015Z,9.20
2023-04-13T06:53:23.872Z,9.22
2023-04-13T06:55:51.172Z,9.25
2023-04-13T06:58:17.717Z,9.28
2023-04-13T07:00:44.340Z,9.32
2023-04-13T07:03:11.159Z,9.37
2023-04-13T07:05:38.975Z,9.42
2023-04-13T07:08:13.056Z,9.44
2023-04-13T07:10:41.077Z,9.51
2023-04-13T07:13:07.772Z,9.54
2023-04-13T07:15:37.414Z,9.56
2023-04-13T07:18:04.738Z,9.58
2023-04-13T07:20:31.467Z,9.61
2023-04-13T07:22:58.203Z,9.61
2023-04-13T07:25:30.813Z,9.62
2023-04-13T07:27:57.659Z,9.63
2023-04-13T07:30:24.224Z,9.64
2023-04-13T07:32:50.890Z,9.64
2023-04-13T07:35:17.422Z,9.65
2023-04-13T07:37:44.575Z,9.65
2023-04-13T07:40:34.476Z,9.67
2023-04-13T07:42:59.044Z,9.71
2023-04-13T07:45:25.676Z,9.72
2023-04-13T07:47:54.822Z,9.76
2023-04-13T07:50:21.429Z,9.82
2023-04-13T07:52:48.023Z,9.87
2023-04-13T07:55:14.877Z,9.94
2023-04-13T07:57:41.435Z,9.99
2023-04-13T08:00:10.786Z,10.04
2023-04-13T08:02:37.527Z,10.12
2023-04-13T08:05:05.139Z,10.18
2023-04-13T08:07:31.866Z,10.23
2023-04-13T08:09:58.516Z,10.30
2023-04-13T08:12:25.011Z,10.38
2023-04-13T08:14:51.701Z,10.46
2023-04-13T08:17:18.331Z,10.55
2023-04-13T08:19:45.236Z,10.63
2023-04-13T08:22:11.885Z,10.67
2023-04-13T08:24:38.807Z,10.71
2023-04-13T08:27:07.426Z,10.71
2023-04-13T08:29:34.193Z,10.75
2023-04-13T08:32:01.708Z,10.73
2023-04-13T08:34:28.357Z,10.70
2023-04-13T08:37:03.886Z,10.63
2023-04-13T08:39:30.413Z,10.64
2023-04-13T08:41:57.845Z,10.61
2023-04-13T08:44:24.889Z,10.58
2023-04-13T08:46:53.252Z,10.58
2023-04-13T08:52:08.976Z,10.50
2023-04-13T08:54:35.685Z,10.47
2023-04-13T08:57:15.091Z,10.37
2023-04-13T08:59:56.281Z,10.24
2023-04-13T09:02:36.758Z,10.18
2023-04-13T09:05:26.600Z,10.08
2023-04-13T09:07:57.029Z,10.00
2023-04-13T09:10:25.843Z,9.96
2023-04-13T09:15:51.922Z,9.86
2023-04-13T09:18:18.993Z,9.82
2023-04-13T09:20:59.376Z,9.74
2023-04-13T09:23:26.602Z,9.73
2023-04-13T09:26:04.972Z,9.67
2023-04-13T09:28:31.655Z,9.69
2023-04-13T09:31:05.626Z,9.64
2023-04-13T09:33:46.900Z,9.63
2023-04-13T09:36:15.166Z,9.66
2023-04-13T09:38:48.381Z,9.66
2023-04-13T09:41:14.943Z,9.69
2023-04-13T09:43:41.439Z,9.69
2023-04-13T09:46:14.541Z,9.73
2023-04-13T09:48:41.873Z,9.78
2023-04-13T09:51:09.737Z,9.83
2023-04-13T09:53:43.789Z,9.85
2023-04-13T09:56:10.376Z,9.89
2023-04-13T09:58:47.308Z,9.91
2023-04-13T10:01:17.319Z,9.95
2023-04-13T10:03:44.647Z,9.98
2023-04-13T10:08:46.565Z,9.99
2023-04-13T10:11:14.880Z,10.00
2023-04-13T10:13:48.312Z,10.01
2023-04-13T10:16:14.916Z,10.06
2023-04-13T10:19:00.274Z,10.13
2023-04-13T10:21:43.461Z,10.19
2023-04-13T10:30:24.061Z,10.39
2023-04-13T10:44:29.134Z,11.18
2023-04-13T10:47:10.139Z,11.41
2023-04-13T10:50:27.725Z,11.59
2023-04-13T10:53:12.242Z,11.77
2023-04-13T10:58:24.195Z,11.96
2023-04-13T11:01:00.029Z,11.96
2023-04-13T11:03:29.771Z,11.93
2023-04-13T11:06:12.575Z,11.85
2023-04-13T11:09:02.574Z,11.77
2023-04-13T11:11:34.674Z,11.65
2023-04-13T11:14:01.326Z,11.55
2023-04-13T11:16:36.606Z,11.49
2023-04-13T11:19:07.692Z,11.40
2023-04-13T11:21:38.000Z,11.37
2023-04-13T11:24:06.712Z,11.38
2023-04-13T11:26:39.305Z,11.39
2023-04-13T11:29:17.409Z,11.43
2023-04-13T11:31:54.509Z,11.47
2023-04-13T11:34:29.761Z,11.52
2023-04-13T11:37:05.689Z,11.59
2023-04-13T11:39:40.889Z,11.70
2023-04-13T11:42:19.444Z,11.86
2023-04-13T11:47:29.152Z,12.57
2023-04-13T11:49:55.917Z,13.18
2023-04-13T11:52:22.606Z,13.74
2023-04-13T11:54:50.926Z,14.29
2023-04-13T11:57:26.647Z,14.78
2023-04-13T11:59:53.417Z,15.17
2023-04-13T12:02:33.746Z,15.36
2023-04-13T12:05:01.603Z,15.45
2023-04-13T12:07:28.929Z,15.35
2023-04-13T12:09:59.053Z,15.15
2023-04-13T12:15:15.340Z,14.58
2023-04-13T12:17:58.034Z,14.22
2023-04-13T12:20:37.246Z,13.94
2023-04-13T12:23:12.387Z,13.74
2023-04-13T12:25:42.231Z,13.57
2023-04-13T12:28:08.740Z,13.51
2023-04-13T12:30:35.202Z,13.50
2023-04-13T12:33:01.696Z,13.58
2023-04-13T12:35:28.152Z,13.74
2023-04-13T12:37:54.601Z,14.10
2023-04-13T12:40:21.029Z,14.56
2023-04-13T12:42:48.986Z,15.12
2023-04-13T12:45:16.779Z,15.57
2023-04-13T12:47:46.429Z,15.85
2023-04-13T12:50:13.125Z,16.09
2023-04-13T12:52:42.779Z,16.32
2023-04-13T12:55:09.593Z,16.56
2023-04-13T12:57:36.050Z,16.89
2023-04-13T13:00:06.472Z,17.25
2023-04-13T13:02:36.028Z,17.62
2023-04-13T13:05:04.016Z,17.97
2023-04-13T13:07:30.983Z,18.17
2023-04-13T13:10:00.891Z,18.20
2023-04-13T13:12:30.015Z,18.05
2023-04-13T13:14:58.475Z,17.76
2023-04-13T13:17:25.154Z,17.38
2023-04-13T13:19:51.937Z,16.99
2023-04-13T13:22:18.349Z,16.63
2023-04-13T13:24:44.795Z,16.42
2023-04-13T13:27:50.776Z,16.45
2023-04-13T13:29:57.772Z,16.70
2023-04-13T13:32:29.419Z,16.91
2023-04-13T13:34:56.220Z,17.05
2023-04-13T13:37:22.827Z,17.00
2023-04-13T13:39:49.482Z,16.84
2023-04-13T13:42:16.114Z,16.47
2023-04-13T13:44:42.594Z,15.98
2023-04-13T13:47:09.319Z,15.50
2023-04-13T13:49:35.799Z,15.05
2023-04-13T13:52:02.298Z,14.73
2023-04-13T13:54:28.641Z,14.66
2023-04-13T13:56:55.076Z,14.80
2023-04-13T13:59:21.536Z,15.18
2023-04-13T14:01:48.719Z,15.69
2023-04-13T14:04:15.660Z,16.24
2023-04-13T14:06:42.074Z,16.79
2023-04-13T14:09:08.791Z,17.27
2023-04-13T14:11:36.081Z,17.75
2023-04-13T14:14:11.091Z,18.23
2023-04-13T14:16:45.038Z,18.80
2023-04-13T14:19:11.546Z,19.33
2023-04-13T14:21:38.025Z,19.79
2023-04-13T14:24:04.936Z,20.22
2023-04-13T14:26:31.436Z,20.58
2023-04-13T14:28:58.227Z,20.84
2023-04-13T14:31:27.861Z,21.04
2023-04-13T14:33:54.340Z,21.18
2023-04-13T14:36:21.180Z,21.27
2023-04-13T14:38:48.581Z,21.21
2023-04-13T14:41:15.037Z,21.11
2023-04-13T14:43:41.408Z,20.86
2023-04-13T14:46:08.828Z,20.51
2023-04-13T14:48:35.616Z,20.10
2023-04-13T14:51:02.091Z,19.79
2023-04-13T14:53:30.047Z,19.60
2023-04-13T14:55:57.305Z,19.42
2023-04-13T14:58:23.789Z,19.26
2023-04-13T15:00:50.199Z,19.14
2023-04-13T15:03:17.672Z,19.05
2023-04-13T15:05:49.744Z,18.98
2023-04-13T15:08:17.632Z,18.91
2023-04-13T15:10:44.322Z,18.89
2023-04-13T15:13:10.824Z,19.00
2023-04-13T15:15:38.217Z,19.23
2023-04-13T15:18:05.725Z,19.59
2023-04-13T15:20:32.334Z,20.00
2023-04-13T15:22:58.854Z,20.41
2023-04-13T15:25:26.368Z,20.85
2023-04-13T15:27:54.641Z,21.24
2023-04-13T15:30:26.064Z,21.63
2023-04-13T15:32:52.854Z,21.96
2023-04-13T15:35:19.310Z,22.18
2023-04-13T15:37:45.829Z,22.34
2023-04-13T15:40:12.555Z,22.51
2023-04-13T15:42:39.075Z,22.68
2023-04-13T15:45:07.065Z,22.85
2023-04-13T15:47:33.598Z,22.91
2023-04-13T15:50:00.476Z,22.89
2023-04-13T15:52:27.072Z,22.88
2023-04-13T15:54:54.200Z,22.87
2023-04-13T15:57:20.649Z,22.80
2023-04-13T15:59:47.222Z,22.64
2023-04-13T16:02:13.750Z,22.39
2023-04-13T16:04:40.505Z,22.15
2023-04-13T16:07:13.595Z,21.92
2023-04-13T16:09:43.734Z,21.58
2023-04-13T16:12:11.314Z,21.26
2023-04-13T16:14:41.642Z,20.87
2023-04-13T16:17:09.442Z,20.47
2023-04-13T16:19:35.879Z,20.04
2023-04-13T16:22:06.170Z,19.61
2023-04-13T16:24:42.083Z,19.18
2023-04-13T16:27:08.747Z,18.87
2023-04-13T16:29:35.513Z,18.55
2023-04-13T16:32:11.724Z,18.20
2023-04-13T16:34:38.348Z,17.95
2023-04-13T16:37:04.970Z,17.67
2023-04-13T16:39:32.161Z,17.37
2023-04-13T16:45:14.327Z,16.82
2023-04-13T16:47:42.097Z,16.65
2023-04-13T16:50:09.881Z,16.48
2023-04-13T16:52:38.645Z,16.34
2023-04-13T16:55:06.311Z,16.24
2023-04-13T16:57:33.381Z,16.16
2023-04-13T17:00:01.071Z,16.07
2023-04-13T17:02:31.565Z,16.01
2023-04-13T17:04:58.186Z,15.95
2023-04-13T17:07:26.766Z,15.89
2023-04-13T17:09:53.725Z,15.86
2023-04-13T17:12:22.424Z,15.80
2023-04-13T17:14:49.805Z,15.75
2023-04-13T17:17:16.472Z,15.71
2023-04-13T17:19:43.023Z,15.63
2023-04-13T17:22:09.707Z,15.57
2023-04-13T17:24:36.675Z,15.48
2023-04-13T17:27:03.147Z,15.41
2023-04-13T17:29:29.789Z,15.32
2023-04-13T17:31:56.710Z,15.24
2023-04-13T17:34:23.230Z,15.19
2023-04-13T17:36:49.836Z,15.13
2023-04-13T17:39:16.374Z,15.06
2023-04-13T17:41:43.266Z,15.00
2023-04-13T17:44:09.894Z,14.94
2023-04-13T17:46:36.631Z,14.85
2023-04-13T17:49:03.209Z,14.80
2023-04-13T17:51:30.837Z,14.74
2023-04-13T17:53:57.329Z,14.70
2023-04-13T17:56:23.894Z,14.65
2023-04-13T17:58:50.343Z,14.61
2023-04-13T18:01:16.946Z,14.58
2023-04-13T18:03:43.812Z,14.55
2023-04-13T18:06:10.726Z,14.52
2023-04-13T18:08:37.140Z,14.48
2023-04-13T18:11:03.802Z,14.41
2023-04-13T18:13:31.494Z,14.35
2023-04-13T18:15:58.454Z,14.26
2023-04-13T18:18:26.241Z,14.18
2023-04-13T18:20:52.986Z,14.10
2023-04-13T18:23:21.429Z,14.00
2023-04-13T18:25:49.231Z,13.92
2023-04-13T18:28:16.492Z,13.84
2023-04-13T18:30:44.033Z,13.75
2023-04-13T18:33:11.459Z,13.67
2023-04-13T18:35:45.839Z,13.59
2023-04-13T18:38:12.518Z,13.54
2023-04-13T18:40:40.320Z,13.47
2023-04-13T18:43:06.840Z,13.40
2023-04-13T18:45:33.793Z,13.33
2023-04-13T18:48:00.436Z,13.26
2023-04-13T18:50:27.070Z,13.20
2023-04-13T18:52:53.657Z,13.12
2023-04-13T18:55:20.288Z,13.07
2023-04-13T18:57:46.926Z,13.00
2023-04-13T19:00:13.979Z,12.95
2023-04-13T19:02:42.292Z,12.92
2023-04-13T19:05:10.921Z,12.86
2023-04-13T19:07:39.025Z,12.81
2023-04-13T19:10:06.689Z,12.77
2023-04-13T19:12:33.250Z,12.73
2023-04-13T19:14:59.802Z,12.71
2023-04-13T19:17:29.418Z,12.68
2023-04-13T19:19:56.836Z,12.67
2023-04-13T19:22:23.437Z,12.65
2023-04-13T19:24:49.937Z,12.62
2023-04-13T19:27:16.392Z,12.60
2023-04-13T19:29:42.848Z,12.57
2023-04-13T19:32:11.823Z,12.55
2023-04-13T19:34:38.445Z,12.53
2023-04-13T19:37:04.932Z,12.53
2023-04-13T19:39:31.465Z,12.49
2023-04-13T19:41:58.005Z,12.47
2023-04-13T19:44:24.516Z,12.43
2023-04-13T19:46:50.945Z,12.38
2023-04-13T19:49:17.553Z,12.35
2023-04-13T19:51:44.107Z,12.30
2023-04-13T19:54:10.666Z,12.26
2023-04-13T19:56:37.196Z,12.22
2023-04-13T19:59:05.125Z,12.21
2023-04-13T20:01:33.640Z,12.19
2023-04-13T20:04:02.096Z,12.16
2023-04-13T20:06:29.183Z,12.14
2023-04-13T20:09:07.301Z,12.05
2023-04-13T20:11:35.054Z,12.07
2023-04-13T20:14:02.160Z,12.04
2023-04-13T20:16:28.810Z,12.02
2023-04-13T20:18:55.348Z,11.98
2023-04-13T20:21:22.003Z,11.96
2023-04-13T20:23:48.751Z,11.94
2023-04-13T20:26:15.479Z,11.93
2023-04-13T20:28:41.976Z,11.92
2023-04-13T20:31:08.561Z,11.89
2023-04-13T20:33:35.264Z,11.89
2023-04-13T20:36:03.134Z,11.88
2023-04-13T20:38:30.007Z,11.85
2023-04-13T20:40:57.167Z,11.84
2023-04-13T20:43:24.201Z,11.82
2023-04-13T20:45:51.636Z,11.80
2023-04-13T20:50:48.048Z,11.76
2023-04-13T20:53:16.553Z,11.73
2023-04-13T20:55:43.164Z,11.70
2023-04-13T20:58:10.684Z,11.66
2023-04-13T21:00:38.364Z,11.62
2023-04-13T21:03:08.814Z,11.57
2023-04-13T21:05:35.952Z,11.52
2023-04-13T21:08:02.803Z,11.48
2023-04-13T21:10:29.383Z,11.44
2023-04-13T21:12:56.126Z,11.40
2023-04-13T21:15:22.619Z,11.38
2023-04-13T21:17:49.318Z,11.37
2023-04-13T21:20:15.965Z,11.36
2023-04-13T21:22:42.487Z,11.33
2023-04-13T21:25:09.289Z,11.32
2023-04-13T21:27:39.476Z,11.32
2023-04-13T21:30:06.754Z,11.30
2023-04-13T21:32:33.445Z,11.29
2023-04-13T21:35:00.543Z,11.28
2023-04-13T21:37:29.235Z,11.27
2023-04-13T21:39:56.260Z,11.26
2023-04-13T21:42:22.888Z,11.24
2023-04-13T21:44:49.550Z,11.22
2023-04-13T21:47:16.187Z,11.19
2023-04-13T21:49:43.212Z,11.18
2023-04-13T21:52:10.086Z,11.17
2023-04-13T21:54:36.630Z,11.14
2023-04-13T21:57:04.424Z,11.13
2023-04-13T21:59:30.811Z,11.12
2023-04-13T22:01:57.452Z,11.12
2023-04-13T22:04:24.164Z,11.12
2023-04-13T22:06:50.933Z,11.11
2023-04-13T22:09:17.494Z,11.11
2023-04-13T22:11:43.960Z,11.10
2023-04-13T22:14:10.744Z,11.08
2023-04-13T22:16:37.231Z,11.07
2023-04-13T22:19:03.748Z,11.05
2023-04-13T22:21:30.361Z,11.05
2023-04-13T22:26:27.024Z,11.02
2023-04-13T22:28:53.494Z,11.02
2023-04-13T22:31:20.057Z,10.99
2023-04-13T22:33:46.563Z,10.98
2023-04-13T22:36:19.481Z,10.94
2023-04-13T22:38:47.005Z,10.96
2023-04-13T22:41:13.484Z,10.94
2023-04-13T22:43:40.339Z,10.92
2023-04-13T22:46:07.829Z,10.90
2023-04-13T22:48:34.424Z,10.88
2023-04-13T22:51:01.396Z,10.86
2023-04-13T22:53:28.112Z,10.84
2023-04-13T22:55:54.621Z,10.82
2023-04-13T22:58:21.202Z,10.80
2023-04-13T23:00:47.702Z,10.80
2023-04-13T23:03:14.464Z,10.77
2023-04-13T23:05:41.076Z,10.75
2023-04-13T23:08:07.695Z,10.73
2023-04-13T23:10:34.238Z,10.69
2023-04-13T23:13:00.725Z,10.64
2023-04-13T23:15:27.191Z,10.59
2023-04-13T23:17:54.958Z,10.54
2023-04-13T23:20:22.638Z,10.47
2023-04-13T23:22:49.840Z,10.43
2023-04-13T23:25:16.409Z,10.37
2023-04-13T23:27:42.879Z,10.34
2023-04-13T23:30:09.885Z,10.29
2023-04-13T23:32:36.332Z,10.26
2023-04-13T23:35:03.044Z,10.22
2023-04-13T23:37:29.515Z,10.19
2023-04-13T23:39:56.286Z,10.19
2023-04-13T23:42:22.772Z,10.16
2023-04-13T23:44:49.199Z,10.14
2023-04-13T23:47:16.231Z,10.14
2023-04-13T23:49:43.282Z,10.12
2023-04-13T23:52:09.861Z,10.09
2023-04-13T23:54:36.680Z,10.08
2023-04-13T23:57:03.239Z,10.04
2023-04-13T23:59:29.895Z,10.03
